EXS56DY EGGD-LGSK
Flight info
| Callsign | EXS56DY |
|---|---|
| Flight time | 3h 9m |
| Altitude | 35000 |
| Route | YORQI DCT NUCHU L607 BIG L15 MOTOX DCT RUCAC DCT LESDO DCT ETINO DCT LASAT DCT DEVDI DCT RIPUS DCT RESIA DCT NIKOL DCT AIOSA DCT PAPIZ DCT DIMIS UL604 YNN/N0465F310 UY121 AGH T6 EVIKO |
| Aircraft | B738/M-SDE2E3FGHIRWXY/LB1 |
Departure
| Time | 2026-05-01 09:16 |
|---|---|
| Airport | Bristol Airport (EGGD) |
Arrival
| Time | 2026-05-01 12:26 |
|---|---|
| Airport | Skiathos Island National Airport (LGSK) |
| Time | Latitude | Longitude | Altitude | Speed | Heading |
|---|---|---|---|---|---|
| 2026-05-01 08:59 | 51.38544 | -2.71679 | 611 ft | 0 kts | 356° |
| 2026-05-01 09:09 | 51.38528 | -2.71677 | 622 ft | 4 kts | 356° |
| 2026-05-01 09:09 | 51.38501 | -2.71674 | 614 ft | 4 kts | 356° |
| 2026-05-01 09:09 | 51.38474 | -2.71672 | 617 ft | 4 kts | 355° |
| 2026-05-01 09:09 | 51.38451 | -2.71659 | 623 ft | 4 kts | 313° |
| 2026-05-01 09:10 | 51.38439 | -2.71624 | 614 ft | 4 kts | 279° |
| 2026-05-01 09:10 | 51.38438 | -2.71591 | 620 ft | 4 kts | 266° |
| 2026-05-01 09:10 | 51.38440 | -2.71547 | 621 ft | 5 kts | 266° |
| 2026-05-01 09:10 | 51.38441 | -2.71519 | 621 ft | 2 kts | 266° |
| 2026-05-01 09:11 | 51.38441 | -2.71520 | 621 ft | 0 kts | 266° |
| 2026-05-01 09:12 | 51.38441 | -2.71521 | 621 ft | 1 kts | 266° |
| 2026-05-01 09:12 | 51.38440 | -2.71554 | 622 ft | 6 kts | 267° |
| 2026-05-01 09:13 | 51.38436 | -2.71670 | 608 ft | 15 kts | 266° |
| 2026-05-01 09:13 | 51.38429 | -2.71884 | 605 ft | 22 kts | 270° |
| 2026-05-01 09:13 | 51.38426 | -2.72135 | 620 ft | 23 kts | 266° |
| 2026-05-01 09:13 | 51.38416 | -2.72382 | 613 ft | 22 kts | 266° |
| 2026-05-01 09:14 | 51.38407 | -2.72623 | 623 ft | 22 kts | 266° |
| 2026-05-01 09:14 | 51.38397 | -2.72869 | 614 ft | 23 kts | 266° |
| 2026-05-01 09:14 | 51.38388 | -2.73116 | 614 ft | 15 kts | 266° |
| 2026-05-01 09:14 | 51.38376 | -2.73272 | 618 ft | 14 kts | 248° |
| 2026-05-01 09:15 | 51.38298 | -2.73343 | 622 ft | 13 kts | 177° |
| 2026-05-01 09:15 | 51.38222 | -2.73282 | 629 ft | 13 kts | 116° |
| 2026-05-01 09:15 | 51.38217 | -2.73186 | 629 ft | 7 kts | 85° |
| 2026-05-01 09:15 | 51.38238 | -2.72670 | 632 ft | 88 kts | 86° |
| 2026-05-01 09:16 | 51.38287 | -2.71299 | 617 ft | 157 kts | 88° |
| 2026-05-01 09:16 | 51.38348 | -2.69452 | 1297 ft | 166 kts | 88° |
| 2026-05-01 09:16 | 51.38408 | -2.67609 | 2160 ft | 174 kts | 89° |
| 2026-05-01 09:17 | 51.38540 | -2.63242 | 3086 ft | 220 kts | 90° |
| 2026-05-01 09:17 | 51.38615 | -2.60761 | 3699 ft | 226 kts | 91° |
| 2026-05-01 09:17 | 51.39129 | -2.55724 | 5262 ft | 239 kts | 62° |
| 2026-05-01 09:18 | 51.40320 | -2.53880 | 6033 ft | 247 kts | 34° |
| 2026-05-01 09:18 | 51.43508 | -2.51116 | 6975 ft | 283 kts | 31° |
| 2026-05-01 09:19 | 51.47042 | -2.47883 | 8281 ft | 298 kts | 35° |
| 2026-05-01 09:19 | 51.48811 | -2.46109 | 9069 ft | 302 kts | 35° |
| 2026-05-01 09:19 | 51.50524 | -2.44133 | 9794 ft | 303 kts | 51° |
| 2026-05-01 09:20 | 51.51944 | -2.38133 | 11075 ft | 297 kts | 95° |
| 2026-05-01 09:20 | 51.51523 | -2.31049 | 11430 ft | 341 kts | 101° |
| 2026-05-01 09:21 | 51.50888 | -2.23042 | 11889 ft | 377 kts | 100° |
| 2026-05-01 09:21 | 51.50577 | -2.18882 | 12451 ft | 382 kts | 100° |
| 2026-05-01 09:21 | 51.49966 | -2.10333 | 13829 ft | 388 kts | 99° |
| 2026-05-01 09:22 | 51.49351 | -2.01632 | 14976 ft | 396 kts | 99° |
| 2026-05-01 09:22 | 51.48721 | -1.92771 | 16154 ft | 402 kts | 100° |
| 2026-05-01 09:23 | 51.48399 | -1.88279 | 16709 ft | 406 kts | 100° |
| 2026-05-01 09:23 | 51.47742 | -1.79202 | 17820 ft | 413 kts | 100° |
| 2026-05-01 09:24 | 51.47070 | -1.70017 | 18834 ft | 419 kts | 100° |
| 2026-05-01 09:24 | 51.46655 | -1.65384 | 19326 ft | 420 kts | 104° |
| 2026-05-01 09:24 | 51.45376 | -1.56243 | 20320 ft | 423 kts | 106° |
| 2026-05-01 09:25 | 51.44065 | -1.46968 | 21235 ft | 428 kts | 105° |
| 2026-05-01 09:25 | 51.42770 | -1.37594 | 22144 ft | 433 kts | 105° |
| 2026-05-01 09:26 | 51.42113 | -1.32867 | 22585 ft | 435 kts | 105° |
| 2026-05-01 09:26 | 51.40786 | -1.23345 | 23443 ft | 439 kts | 106° |
| 2026-05-01 09:26 | 51.40113 | -1.18552 | 23849 ft | 441 kts | 106° |
| 2026-05-01 09:27 | 51.39161 | -1.08847 | 24510 ft | 449 kts | 98° |
| 2026-05-01 09:27 | 51.38920 | -1.03830 | 24851 ft | 451 kts | 97° |
| 2026-05-01 09:27 | 51.38702 | -0.98807 | 25152 ft | 453 kts | 97° |
| 2026-05-01 09:28 | 51.38480 | -0.93756 | 25452 ft | 456 kts | 97° |
| 2026-05-01 09:28 | 51.38243 | -0.88689 | 25746 ft | 457 kts | 98° |
| 2026-05-01 09:28 | 51.37991 | -0.83589 | 26038 ft | 459 kts | 98° |
| 2026-05-01 09:28 | 51.37728 | -0.78487 | 26327 ft | 461 kts | 98° |
| 2026-05-01 09:29 | 51.37184 | -0.68284 | 26881 ft | 465 kts | 98° |
| 2026-05-01 09:29 | 51.36905 | -0.63133 | 27215 ft | 465 kts | 98° |
| 2026-05-01 09:30 | 51.36343 | -0.52859 | 28118 ft | 460 kts | 99° |
| 2026-05-01 09:30 | 51.36061 | -0.47760 | 28532 ft | 459 kts | 99° |
| 2026-05-01 09:30 | 51.35490 | -0.37574 | 29258 ft | 459 kts | 99° |
| 2026-05-01 09:31 | 51.35202 | -0.32492 | 29670 ft | 457 kts | 99° |
| 2026-05-01 09:31 | 51.34917 | -0.27500 | 30098 ft | 456 kts | 99° |
| 2026-05-01 09:31 | 51.34335 | -0.17411 | 30785 ft | 454 kts | 99° |
| 2026-05-01 09:32 | 51.34042 | -0.12384 | 31086 ft | 454 kts | 99° |
| 2026-05-01 09:32 | 51.33450 | -0.02337 | 31708 ft | 453 kts | 100° |
| 2026-05-01 09:32 | 51.33048 | 0.02639 | 31991 ft | 449 kts | 106° |
| 2026-05-01 09:33 | 51.32221 | 0.07423 | 32246 ft | 444 kts | 115° |
| 2026-05-01 09:33 | 51.31061 | 0.11992 | 32529 ft | 442 kts | 116° |
| 2026-05-01 09:33 | 51.28699 | 0.21006 | 33104 ft | 442 kts | 116° |
| 2026-05-01 09:34 | 51.27518 | 0.25537 | 33372 ft | 442 kts | 116° |
| 2026-05-01 09:34 | 51.26345 | 0.30072 | 33571 ft | 442 kts | 116° |
| 2026-05-01 09:34 | 51.24016 | 0.39135 | 34128 ft | 441 kts | 116° |
| 2026-05-01 09:35 | 51.22854 | 0.43659 | 34360 ft | 441 kts | 116° |
| 2026-05-01 09:35 | 51.20522 | 0.52719 | 34781 ft | 441 kts | 116° |
| 2026-05-01 09:35 | 51.19355 | 0.57238 | 34987 ft | 441 kts | 116° |
| 2026-05-01 09:36 | 51.18184 | 0.61762 | 35177 ft | 442 kts | 116° |
| 2026-05-01 09:36 | 51.17008 | 0.66294 | 35369 ft | 442 kts | 116° |
| 2026-05-01 09:36 | 51.16230 | 0.69292 | 35523 ft | 442 kts | 116° |
| 2026-05-01 09:36 | 51.15052 | 0.73817 | 35737 ft | 442 kts | 116° |
| 2026-05-01 09:37 | 51.13873 | 0.78339 | 35980 ft | 442 kts | 115° |
| 2026-05-01 09:37 | 51.11506 | 0.87388 | 36349 ft | 442 kts | 115° |
| 2026-05-01 09:37 | 51.10318 | 0.91918 | 36526 ft | 443 kts | 115° |
| 2026-05-01 09:38 | 51.07957 | 1.00898 | 36880 ft | 443 kts | 115° |
| 2026-05-01 09:38 | 51.06764 | 1.05419 | 37067 ft | 443 kts | 115° |
| 2026-05-01 09:38 | 51.05573 | 1.09929 | 37220 ft | 443 kts | 115° |
| 2026-05-01 09:39 | 51.03173 | 1.19001 | 37244 ft | 446 kts | 115° |
| 2026-05-01 09:39 | 51.00770 | 1.28066 | 37226 ft | 444 kts | 115° |
| 2026-05-01 09:40 | 50.97172 | 1.41573 | 37223 ft | 441 kts | 115° |
| 2026-05-01 09:41 | 50.94788 | 1.50448 | 37227 ft | 440 kts | 115° |
| 2026-05-01 09:41 | 50.91152 | 1.63779 | 37236 ft | 439 kts | 115° |
| 2026-05-01 09:42 | 50.88559 | 1.72529 | 37235 ft | 438 kts | 124° |
| 2026-05-01 09:42 | 50.84695 | 1.79894 | 37249 ft | 435 kts | 138° |
| 2026-05-01 09:43 | 50.80274 | 1.86465 | 37243 ft | 436 kts | 138° |
| 2026-05-01 09:43 | 50.75828 | 1.93039 | 37239 ft | 438 kts | 138° |
| 2026-05-01 09:44 | 50.69165 | 2.02982 | 37241 ft | 440 kts | 138° |
| 2026-05-01 09:45 | 50.64753 | 2.09580 | 37237 ft | 440 kts | 138° |
| 2026-05-01 09:45 | 50.58082 | 2.19524 | 37241 ft | 439 kts | 138° |
| 2026-05-01 09:46 | 50.53639 | 2.26121 | 37235 ft | 439 kts | 138° |
| 2026-05-01 09:46 | 50.49201 | 2.32693 | 37238 ft | 438 kts | 138° |
| 2026-05-01 09:47 | 50.44757 | 2.39256 | 37239 ft | 437 kts | 138° |
| 2026-05-01 09:47 | 50.40356 | 2.45738 | 37231 ft | 436 kts | 138° |
| 2026-05-01 09:48 | 50.35927 | 2.52242 | 37235 ft | 436 kts | 138° |
| 2026-05-01 09:48 | 50.31502 | 2.58726 | 37239 ft | 435 kts | 138° |
| 2026-05-01 09:49 | 50.27083 | 2.65182 | 37242 ft | 434 kts | 138° |
| 2026-05-01 09:49 | 50.22658 | 2.71630 | 37238 ft | 434 kts | 138° |
| 2026-05-01 09:50 | 50.18266 | 2.78013 | 37243 ft | 434 kts | 138° |
| 2026-05-01 09:50 | 50.13828 | 2.84446 | 37238 ft | 434 kts | 138° |
| 2026-05-01 09:51 | 50.09395 | 2.90855 | 37239 ft | 435 kts | 138° |
| 2026-05-01 09:51 | 50.04975 | 2.97228 | 37240 ft | 436 kts | 138° |
| 2026-05-01 09:52 | 50.00518 | 3.03637 | 37238 ft | 436 kts | 138° |
| 2026-05-01 09:52 | 49.96046 | 3.10051 | 37244 ft | 437 kts | 138° |
| 2026-05-01 09:53 | 49.91568 | 3.16458 | 37243 ft | 438 kts | 138° |
| 2026-05-01 09:53 | 49.87074 | 3.22872 | 37243 ft | 439 kts | 138° |
| 2026-05-01 09:54 | 49.82577 | 3.29274 | 37243 ft | 439 kts | 138° |
| 2026-05-01 09:54 | 49.78452 | 3.36141 | 37266 ft | 439 kts | 129° |
| 2026-05-01 09:55 | 49.74675 | 3.43577 | 37258 ft | 439 kts | 129° |
| 2026-05-01 09:55 | 49.70890 | 3.51023 | 37254 ft | 439 kts | 129° |
| 2026-05-01 09:56 | 49.67087 | 3.58423 | 37249 ft | 439 kts | 129° |
| 2026-05-01 09:56 | 49.63301 | 3.65737 | 37252 ft | 439 kts | 129° |
| 2026-05-01 09:57 | 49.59482 | 3.73087 | 37261 ft | 438 kts | 129° |
| 2026-05-01 09:57 | 49.55662 | 3.80416 | 37259 ft | 438 kts | 129° |
| 2026-05-01 09:58 | 49.51843 | 3.87728 | 37264 ft | 438 kts | 129° |
| 2026-05-01 09:58 | 49.48045 | 3.94978 | 37258 ft | 437 kts | 129° |
| 2026-05-01 09:59 | 49.44217 | 4.02267 | 37265 ft | 437 kts | 129° |
| 2026-05-01 09:59 | 49.40393 | 4.09527 | 37266 ft | 437 kts | 129° |
| 2026-05-01 10:00 | 49.36561 | 4.16783 | 37264 ft | 437 kts | 129° |
| 2026-05-01 10:00 | 49.32755 | 4.23971 | 37275 ft | 437 kts | 129° |
| 2026-05-01 10:01 | 49.28917 | 4.31197 | 37267 ft | 437 kts | 129° |
| 2026-05-01 10:01 | 49.25069 | 4.38425 | 37267 ft | 437 kts | 129° |
| 2026-05-01 10:02 | 49.21216 | 4.45642 | 37268 ft | 437 kts | 129° |
| 2026-05-01 10:02 | 49.17376 | 4.52814 | 37263 ft | 437 kts | 129° |
| 2026-05-01 10:03 | 49.13516 | 4.60002 | 37275 ft | 437 kts | 129° |
| 2026-05-01 10:03 | 49.09653 | 4.67180 | 37270 ft | 438 kts | 129° |
| 2026-05-01 10:04 | 49.05777 | 4.74362 | 37271 ft | 438 kts | 129° |
| 2026-05-01 10:04 | 49.01885 | 4.81554 | 37270 ft | 439 kts | 129° |
| 2026-05-01 10:05 | 48.98019 | 4.88679 | 37264 ft | 439 kts | 129° |
| 2026-05-01 10:05 | 48.94127 | 4.95835 | 37268 ft | 439 kts | 129° |
| 2026-05-01 10:06 | 48.90229 | 5.02982 | 37271 ft | 439 kts | 130° |
| 2026-05-01 10:06 | 48.86556 | 5.10403 | 37283 ft | 439 kts | 124° |
| 2026-05-01 10:07 | 48.83228 | 5.18141 | 37278 ft | 439 kts | 123° |
| 2026-05-01 10:07 | 48.79896 | 5.25931 | 37270 ft | 440 kts | 123° |
| 2026-05-01 10:08 | 48.74837 | 5.37538 | 37275 ft | 439 kts | 123° |
| 2026-05-01 10:09 | 48.71464 | 5.45202 | 37284 ft | 440 kts | 123° |
| 2026-05-01 10:09 | 48.68059 | 5.52909 | 37276 ft | 440 kts | 124° |
| 2026-05-01 10:10 | 48.64672 | 5.60559 | 37297 ft | 440 kts | 124° |
| 2026-05-01 10:10 | 48.59549 | 5.72089 | 37293 ft | 440 kts | 124° |
| 2026-05-01 10:11 | 48.56126 | 5.79766 | 37286 ft | 441 kts | 123° |
| 2026-05-01 10:11 | 48.52696 | 5.87437 | 37298 ft | 441 kts | 123° |
| 2026-05-01 10:12 | 48.49836 | 5.93815 | 37285 ft | 441 kts | 124° |
| 2026-05-01 10:13 | 48.44097 | 6.06571 | 37298 ft | 443 kts | 124° |
| 2026-05-01 10:13 | 48.40629 | 6.14250 | 37297 ft | 444 kts | 124° |
| 2026-05-01 10:14 | 48.35396 | 6.25798 | 37298 ft | 446 kts | 124° |
| 2026-05-01 10:14 | 48.32004 | 6.33256 | 37295 ft | 447 kts | 124° |
| 2026-05-01 10:15 | 48.28487 | 6.40967 | 37297 ft | 447 kts | 124° |
| 2026-05-01 10:15 | 48.24979 | 6.48640 | 37298 ft | 448 kts | 124° |
| 2026-05-01 10:16 | 48.21463 | 6.56305 | 37283 ft | 441 kts | 124° |
| 2026-05-01 10:17 | 48.16309 | 6.67509 | 37290 ft | 430 kts | 124° |
| 2026-05-01 10:17 | 48.11171 | 6.78316 | 37289 ft | 422 kts | 125° |
| 2026-05-01 10:18 | 48.06043 | 6.88913 | 37290 ft | 415 kts | 124° |
| 2026-05-01 10:19 | 48.02673 | 6.95889 | 37296 ft | 412 kts | 124° |
| 2026-05-01 10:19 | 47.99334 | 7.02789 | 37308 ft | 408 kts | 124° |
| 2026-05-01 10:20 | 47.94395 | 7.12960 | 37311 ft | 403 kts | 124° |
| 2026-05-01 10:20 | 47.91113 | 7.19706 | 37305 ft | 400 kts | 124° |
| 2026-05-01 10:21 | 47.86218 | 7.29727 | 37309 ft | 397 kts | 124° |
| 2026-05-01 10:22 | 47.81358 | 7.39645 | 37311 ft | 393 kts | 124° |
| 2026-05-01 10:23 | 47.76551 | 7.49422 | 37309 ft | 390 kts | 124° |
| 2026-05-01 10:23 | 47.71753 | 7.59132 | 37311 ft | 387 kts | 124° |
| 2026-05-01 10:24 | 47.65922 | 7.70871 | 37315 ft | 384 kts | 124° |
| 2026-05-01 10:25 | 47.59085 | 7.84581 | 37326 ft | 380 kts | 124° |
| 2026-05-01 10:26 | 47.56472 | 7.89803 | 37308 ft | 379 kts | 124° |
| 2026-05-01 10:27 | 47.50205 | 8.02289 | 37314 ft | 377 kts | 124° |
| 2026-05-01 10:28 | 47.45510 | 8.11607 | 37252 ft | 377 kts | 124° |
| 2026-05-01 10:28 | 47.40812 | 8.20899 | 37207 ft | 377 kts | 124° |
| 2026-05-01 10:29 | 47.36101 | 8.30184 | 37183 ft | 376 kts | 124° |
| 2026-05-01 10:30 | 47.29845 | 8.42473 | 37130 ft | 375 kts | 125° |
| 2026-05-01 10:31 | 47.23607 | 8.54777 | 37067 ft | 375 kts | 123° |
| 2026-05-01 10:32 | 47.19005 | 8.64117 | 36998 ft | 376 kts | 123° |
| 2026-05-01 10:33 | 47.12848 | 8.76539 | 36970 ft | 376 kts | 123° |
| 2026-05-01 10:34 | 47.08234 | 8.85799 | 36939 ft | 376 kts | 123° |
| 2026-05-01 10:34 | 47.05138 | 8.91995 | 36920 ft | 376 kts | 123° |
| 2026-05-01 10:35 | 47.00487 | 9.01272 | 36880 ft | 376 kts | 123° |
| 2026-05-01 10:35 | 46.97403 | 9.07410 | 36839 ft | 376 kts | 123° |
| 2026-05-01 10:36 | 46.92731 | 9.16679 | 36830 ft | 376 kts | 123° |
| 2026-05-01 10:37 | 46.89617 | 9.22840 | 36810 ft | 376 kts | 123° |
| 2026-05-01 10:37 | 46.84949 | 9.32052 | 36811 ft | 377 kts | 123° |
| 2026-05-01 10:38 | 46.81815 | 9.38220 | 36824 ft | 377 kts | 123° |
| 2026-05-01 10:38 | 46.78689 | 9.44357 | 36816 ft | 377 kts | 123° |
| 2026-05-01 10:39 | 46.75578 | 9.50451 | 36756 ft | 377 kts | 123° |
| 2026-05-01 10:39 | 46.72434 | 9.56597 | 36723 ft | 378 kts | 123° |
| 2026-05-01 10:40 | 46.69280 | 9.62750 | 36746 ft | 378 kts | 123° |
| 2026-05-01 10:40 | 46.66129 | 9.68882 | 36822 ft | 377 kts | 123° |
| 2026-05-01 10:41 | 46.62997 | 9.74965 | 36797 ft | 379 kts | 123° |
| 2026-05-01 10:42 | 46.58232 | 9.84195 | 36761 ft | 380 kts | 123° |
| 2026-05-01 10:42 | 46.55057 | 9.90326 | 36837 ft | 378 kts | 123° |
| 2026-05-01 10:43 | 46.51894 | 9.96425 | 36829 ft | 379 kts | 123° |
| 2026-05-01 10:43 | 46.48680 | 10.02609 | 36976 ft | 385 kts | 123° |
| 2026-05-01 10:43 | 46.47076 | 10.05657 | 37139 ft | 385 kts | 125° |
| 2026-05-01 10:44 | 46.45374 | 10.08680 | 37241 ft | 389 kts | 127° |
| 2026-05-01 10:44 | 46.41827 | 10.14716 | 37337 ft | 397 kts | 127° |
| 2026-05-01 10:45 | 46.38189 | 10.20878 | 37336 ft | 407 kts | 127° |
| 2026-05-01 10:45 | 46.34480 | 10.27194 | 37347 ft | 416 kts | 127° |
| 2026-05-01 10:46 | 46.30714 | 10.33622 | 37357 ft | 426 kts | 127° |
| 2026-05-01 10:46 | 46.26822 | 10.40260 | 37343 ft | 436 kts | 127° |
| 2026-05-01 10:47 | 46.22842 | 10.47033 | 37334 ft | 448 kts | 127° |
| 2026-05-01 10:47 | 46.18791 | 10.53907 | 37358 ft | 457 kts | 127° |
| 2026-05-01 10:48 | 46.14624 | 10.60961 | 37358 ft | 465 kts | 127° |
| 2026-05-01 10:48 | 46.10388 | 10.68113 | 37365 ft | 473 kts | 128° |
| 2026-05-01 10:49 | 46.06066 | 10.75391 | 37363 ft | 481 kts | 128° |
| 2026-05-01 10:49 | 46.01709 | 10.82708 | 37363 ft | 486 kts | 128° |
| 2026-05-01 10:50 | 45.97296 | 10.90099 | 37358 ft | 488 kts | 128° |
| 2026-05-01 10:50 | 45.92858 | 10.97511 | 37372 ft | 489 kts | 128° |
| 2026-05-01 10:51 | 45.88410 | 11.04923 | 37372 ft | 489 kts | 128° |
| 2026-05-01 10:51 | 45.83961 | 11.12314 | 37370 ft | 489 kts | 128° |
| 2026-05-01 10:52 | 45.79515 | 11.19682 | 37376 ft | 488 kts | 128° |
| 2026-05-01 10:52 | 45.75097 | 11.26985 | 37375 ft | 486 kts | 128° |
| 2026-05-01 10:53 | 45.70650 | 11.34316 | 37397 ft | 486 kts | 128° |
| 2026-05-01 10:53 | 45.66233 | 11.41581 | 37389 ft | 487 kts | 128° |
| 2026-05-01 10:54 | 45.61770 | 11.48900 | 37393 ft | 488 kts | 128° |
| 2026-05-01 10:54 | 45.57294 | 11.56221 | 37400 ft | 489 kts | 128° |
| 2026-05-01 10:55 | 45.52841 | 11.63486 | 37398 ft | 489 kts | 129° |
| 2026-05-01 10:55 | 45.48340 | 11.70810 | 37404 ft | 490 kts | 129° |
| 2026-05-01 10:56 | 45.43840 | 11.78113 | 37407 ft | 491 kts | 129° |
| 2026-05-01 10:56 | 45.39322 | 11.85424 | 37405 ft | 491 kts | 129° |
| 2026-05-01 10:57 | 45.34832 | 11.92673 | 37401 ft | 491 kts | 129° |
| 2026-05-01 10:57 | 45.30302 | 11.99967 | 37399 ft | 492 kts | 129° |
| 2026-05-01 10:58 | 45.25767 | 12.07249 | 37399 ft | 492 kts | 129° |
| 2026-05-01 10:58 | 45.21215 | 12.14539 | 37393 ft | 492 kts | 129° |
| 2026-05-01 10:59 | 45.16693 | 12.21764 | 37401 ft | 493 kts | 130° |
| 2026-05-01 10:59 | 45.12133 | 12.29029 | 37397 ft | 493 kts | 130° |
| 2026-05-01 11:00 | 45.07567 | 12.36286 | 37399 ft | 493 kts | 130° |
| 2026-05-01 11:00 | 45.02989 | 12.43542 | 37398 ft | 494 kts | 130° |
| 2026-05-01 11:01 | 44.98411 | 12.50780 | 37397 ft | 494 kts | 130° |
| 2026-05-01 11:01 | 44.93849 | 12.57972 | 37395 ft | 494 kts | 130° |
| 2026-05-01 11:02 | 44.89249 | 12.65209 | 37393 ft | 495 kts | 131° |
| 2026-05-01 11:02 | 44.84645 | 12.72430 | 37391 ft | 495 kts | 131° |
| 2026-05-01 11:03 | 44.80024 | 12.79658 | 37381 ft | 496 kts | 131° |
| 2026-05-01 11:03 | 44.75428 | 12.86830 | 37388 ft | 496 kts | 131° |
| 2026-05-01 11:04 | 44.70794 | 12.94046 | 37389 ft | 497 kts | 131° |
| 2026-05-01 11:04 | 44.66151 | 13.01255 | 37379 ft | 497 kts | 131° |
| 2026-05-01 11:05 | 44.61492 | 13.08470 | 37379 ft | 498 kts | 132° |
| 2026-05-01 11:05 | 44.56834 | 13.15665 | 37375 ft | 498 kts | 132° |
| 2026-05-01 11:06 | 44.52198 | 13.22807 | 37375 ft | 498 kts | 132° |
| 2026-05-01 11:06 | 44.47525 | 13.29989 | 37374 ft | 499 kts | 132° |
| 2026-05-01 11:07 | 44.40494 | 13.40760 | 37373 ft | 499 kts | 132° |
| 2026-05-01 11:07 | 44.35802 | 13.47925 | 37371 ft | 499 kts | 132° |
| 2026-05-01 11:08 | 44.31133 | 13.55038 | 37369 ft | 500 kts | 132° |
| 2026-05-01 11:09 | 44.24227 | 13.65527 | 37368 ft | 500 kts | 132° |
| 2026-05-01 11:09 | 44.19671 | 13.72554 | 37360 ft | 500 kts | 130° |
| 2026-05-01 11:10 | 44.12984 | 13.83661 | 37359 ft | 500 kts | 129° |
| 2026-05-01 11:10 | 44.08703 | 13.90785 | 37355 ft | 501 kts | 130° |
| 2026-05-01 11:11 | 44.04198 | 13.98195 | 37356 ft | 501 kts | 130° |
| 2026-05-01 11:11 | 43.99705 | 14.05533 | 37353 ft | 501 kts | 130° |
| 2026-05-01 11:12 | 43.95179 | 14.12902 | 37351 ft | 501 kts | 130° |
| 2026-05-01 11:12 | 43.90648 | 14.20264 | 37346 ft | 501 kts | 130° |
| 2026-05-01 11:13 | 43.86120 | 14.27604 | 37345 ft | 501 kts | 130° |
| 2026-05-01 11:13 | 43.81585 | 14.34938 | 37342 ft | 501 kts | 130° |
| 2026-05-01 11:14 | 43.77045 | 14.42260 | 37337 ft | 501 kts | 130° |
| 2026-05-01 11:14 | 43.73267 | 14.48339 | 37334 ft | 501 kts | 130° |
| 2026-05-01 11:15 | 43.67976 | 14.56833 | 37333 ft | 501 kts | 130° |
| 2026-05-01 11:15 | 43.64177 | 14.62915 | 37328 ft | 501 kts | 130° |
| 2026-05-01 11:16 | 43.59609 | 14.70212 | 37324 ft | 501 kts | 130° |
| 2026-05-01 11:16 | 43.55043 | 14.77486 | 37319 ft | 501 kts | 131° |
| 2026-05-01 11:17 | 43.50460 | 14.84768 | 37316 ft | 502 kts | 131° |
| 2026-05-01 11:17 | 43.45911 | 14.91980 | 37316 ft | 502 kts | 131° |
| 2026-05-01 11:18 | 43.41331 | 14.99223 | 37313 ft | 502 kts | 131° |
| 2026-05-01 11:18 | 43.36736 | 15.06471 | 37303 ft | 502 kts | 131° |
| 2026-05-01 11:19 | 43.32137 | 15.13706 | 37303 ft | 502 kts | 131° |
| 2026-05-01 11:19 | 43.27539 | 15.20922 | 37302 ft | 502 kts | 131° |
| 2026-05-01 11:20 | 43.22936 | 15.28129 | 37300 ft | 502 kts | 131° |
| 2026-05-01 11:20 | 43.18356 | 15.35281 | 37290 ft | 502 kts | 131° |
| 2026-05-01 11:21 | 43.13747 | 15.42460 | 37289 ft | 502 kts | 131° |
| 2026-05-01 11:21 | 43.09124 | 15.49643 | 37287 ft | 502 kts | 132° |
| 2026-05-01 11:22 | 43.04505 | 15.56804 | 37288 ft | 502 kts | 132° |
| 2026-05-01 11:22 | 42.99905 | 15.63917 | 37281 ft | 502 kts | 132° |
| 2026-05-01 11:23 | 42.95265 | 15.71072 | 37284 ft | 502 kts | 132° |
| 2026-05-01 11:23 | 42.90626 | 15.78211 | 37276 ft | 502 kts | 132° |
| 2026-05-01 11:24 | 42.86004 | 15.85305 | 37274 ft | 503 kts | 132° |
| 2026-05-01 11:25 | 42.79016 | 15.95997 | 37279 ft | 503 kts | 133° |
| 2026-05-01 11:25 | 42.72019 | 16.06665 | 37267 ft | 503 kts | 133° |
| 2026-05-01 11:26 | 42.65028 | 16.17283 | 37264 ft | 503 kts | 133° |
| 2026-05-01 11:27 | 42.60351 | 16.24367 | 37267 ft | 503 kts | 133° |
| 2026-05-01 11:27 | 42.55666 | 16.31443 | 37256 ft | 503 kts | 133° |
| 2026-05-01 11:28 | 42.51009 | 16.38463 | 37261 ft | 503 kts | 133° |
| 2026-05-01 11:28 | 42.46314 | 16.45521 | 37252 ft | 504 kts | 133° |
| 2026-05-01 11:29 | 42.39265 | 16.56086 | 37251 ft | 504 kts | 133° |
| 2026-05-01 11:30 | 42.32229 | 16.66595 | 37247 ft | 504 kts | 133° |
| 2026-05-01 11:30 | 42.27515 | 16.73614 | 37235 ft | 504 kts | 134° |
| 2026-05-01 11:31 | 42.22796 | 16.80623 | 37237 ft | 504 kts | 134° |
| 2026-05-01 11:31 | 42.18104 | 16.87577 | 37225 ft | 504 kts | 134° |
| 2026-05-01 11:32 | 42.13377 | 16.94564 | 37236 ft | 504 kts | 134° |
| 2026-05-01 11:32 | 42.08645 | 17.01544 | 37221 ft | 504 kts | 134° |
| 2026-05-01 11:33 | 42.03915 | 17.08505 | 37225 ft | 503 kts | 134° |
| 2026-05-01 11:33 | 41.99179 | 17.15457 | 37215 ft | 503 kts | 134° |
| 2026-05-01 11:34 | 41.94471 | 17.22355 | 37218 ft | 503 kts | 134° |
| 2026-05-01 11:34 | 41.89887 | 17.29471 | 37215 ft | 504 kts | 130° |
| 2026-05-01 11:35 | 41.85542 | 17.36865 | 37216 ft | 504 kts | 129° |
| 2026-05-01 11:35 | 41.81222 | 17.44270 | 37208 ft | 504 kts | 129° |
| 2026-05-01 11:36 | 41.77080 | 17.51276 | 37211 ft | 504 kts | 130° |
| 2026-05-01 11:36 | 41.72726 | 17.58572 | 37200 ft | 504 kts | 130° |
| 2026-05-01 11:37 | 41.68345 | 17.65886 | 37206 ft | 503 kts | 130° |
| 2026-05-01 11:37 | 41.63958 | 17.73196 | 37198 ft | 503 kts | 130° |
| 2026-05-01 11:37 | 41.61765 | 17.76843 | 37304 ft | 503 kts | 129° |
| 2026-05-01 11:38 | 41.59570 | 17.80492 | 37246 ft | 503 kts | 129° |
| 2026-05-01 11:38 | 41.55184 | 17.87770 | 37199 ft | 501 kts | 130° |
| 2026-05-01 11:39 | 41.50841 | 17.94959 | 37184 ft | 500 kts | 130° |
| 2026-05-01 11:39 | 41.46474 | 18.02169 | 37184 ft | 499 kts | 130° |
| 2026-05-01 11:40 | 41.42108 | 18.09360 | 37188 ft | 499 kts | 130° |
| 2026-05-01 11:40 | 41.37737 | 18.16544 | 37184 ft | 499 kts | 130° |
| 2026-05-01 11:41 | 41.33351 | 18.23735 | 37185 ft | 500 kts | 130° |
| 2026-05-01 11:41 | 41.28985 | 18.30875 | 37179 ft | 501 kts | 130° |
| 2026-05-01 11:42 | 41.24583 | 18.38060 | 37174 ft | 502 kts | 130° |
| 2026-05-01 11:42 | 41.20158 | 18.45263 | 37165 ft | 503 kts | 131° |
| 2026-05-01 11:43 | 41.15742 | 18.52435 | 37161 ft | 504 kts | 131° |
| 2026-05-01 11:43 | 41.11294 | 18.59642 | 37155 ft | 505 kts | 131° |
| 2026-05-01 11:44 | 41.04603 | 18.70452 | 37145 ft | 506 kts | 131° |
| 2026-05-01 11:44 | 41.00133 | 18.77654 | 37137 ft | 506 kts | 131° |
| 2026-05-01 11:45 | 40.95641 | 18.84874 | 37143 ft | 507 kts | 131° |
| 2026-05-01 11:45 | 40.91180 | 18.92028 | 37126 ft | 507 kts | 131° |
| 2026-05-01 11:46 | 40.86923 | 18.99486 | 37128 ft | 509 kts | 125° |
| 2026-05-01 11:46 | 40.83119 | 19.07386 | 37110 ft | 510 kts | 123° |
| 2026-05-01 11:47 | 40.79353 | 19.15331 | 37100 ft | 510 kts | 124° |
| 2026-05-01 11:47 | 40.75532 | 19.23233 | 37104 ft | 510 kts | 124° |
| 2026-05-01 11:48 | 40.71698 | 19.31055 | 37093 ft | 510 kts | 124° |
| 2026-05-01 11:48 | 40.67829 | 19.38910 | 37077 ft | 511 kts | 124° |
| 2026-05-01 11:49 | 40.63947 | 19.46779 | 37076 ft | 511 kts | 125° |
| 2026-05-01 11:49 | 40.60069 | 19.54624 | 37069 ft | 511 kts | 125° |
| 2026-05-01 11:50 | 40.56184 | 19.62468 | 37072 ft | 512 kts | 125° |
| 2026-05-01 11:50 | 40.52311 | 19.70266 | 37056 ft | 512 kts | 125° |
| 2026-05-01 11:51 | 40.48408 | 19.78102 | 37062 ft | 512 kts | 125° |
| 2026-05-01 11:51 | 40.44502 | 19.85929 | 37060 ft | 513 kts | 125° |
| 2026-05-01 11:52 | 40.40576 | 19.93773 | 37038 ft | 513 kts | 126° |
| 2026-05-01 11:52 | 40.36675 | 20.01550 | 37061 ft | 513 kts | 126° |
| 2026-05-01 11:53 | 40.32739 | 20.09376 | 37056 ft | 514 kts | 126° |
| 2026-05-01 11:53 | 40.28793 | 20.17202 | 37055 ft | 515 kts | 126° |
| 2026-05-01 11:54 | 40.24835 | 20.25034 | 37055 ft | 515 kts | 126° |
| 2026-05-01 11:54 | 40.20872 | 20.32856 | 37053 ft | 514 kts | 126° |
| 2026-05-01 11:55 | 40.16942 | 20.40594 | 37059 ft | 514 kts | 126° |
| 2026-05-01 11:55 | 40.12990 | 20.48359 | 37061 ft | 513 kts | 126° |
| 2026-05-01 11:56 | 40.08857 | 20.55939 | 37058 ft | 509 kts | 136° |
| 2026-05-01 11:56 | 40.03501 | 20.61783 | 37083 ft | 498 kts | 153° |
| 2026-05-01 11:57 | 39.98384 | 20.65096 | 37094 ft | 492 kts | 161° |
| 2026-05-01 11:57 | 39.91052 | 20.69388 | 37094 ft | 495 kts | 161° |
| 2026-05-01 11:58 | 39.84813 | 20.73137 | 37092 ft | 498 kts | 161° |
| 2026-05-01 11:59 | 39.75388 | 20.78854 | 37099 ft | 499 kts | 160° |
| 2026-05-01 11:59 | 39.72403 | 20.81241 | 37086 ft | 511 kts | 144° |
| 2026-05-01 11:59 | 39.69946 | 20.84623 | 37113 ft | 520 kts | 129° |
| 2026-05-01 12:00 | 39.67123 | 20.93277 | 37140 ft | 528 kts | 107° |
| 2026-05-01 12:00 | 39.66111 | 20.97875 | 37106 ft | 530 kts | 107° |
| 2026-05-01 12:01 | 39.63011 | 21.11675 | 37111 ft | 531 kts | 108° |
| 2026-05-01 12:01 | 39.60858 | 21.20782 | 37128 ft | 530 kts | 109° |
| 2026-05-01 12:02 | 39.58664 | 21.29921 | 37164 ft | 530 kts | 109° |
| 2026-05-01 12:02 | 39.56463 | 21.39062 | 37186 ft | 530 kts | 109° |
| 2026-05-01 12:03 | 39.54284 | 21.48102 | 37158 ft | 523 kts | 109° |
| 2026-05-01 12:03 | 39.53211 | 21.52551 | 36999 ft | 511 kts | 109° |
| 2026-05-01 12:03 | 39.52159 | 21.56912 | 36614 ft | 502 kts | 109° |
| 2026-05-01 12:03 | 39.51117 | 21.61214 | 35872 ft | 500 kts | 109° |
| 2026-05-01 12:04 | 39.50068 | 21.65528 | 34906 ft | 506 kts | 110° |
| 2026-05-01 12:04 | 39.48991 | 21.69937 | 33735 ft | 522 kts | 110° |
| 2026-05-01 12:04 | 39.48258 | 21.72933 | 32965 ft | 529 kts | 110° |
| 2026-05-01 12:04 | 39.47134 | 21.77525 | 31948 ft | 537 kts | 110° |
| 2026-05-01 12:05 | 39.46000 | 21.82158 | 31056 ft | 541 kts | 110° |
| 2026-05-01 12:05 | 39.43722 | 21.91462 | 29356 ft | 541 kts | 110° |
| 2026-05-01 12:05 | 39.42583 | 21.96098 | 28538 ft | 538 kts | 110° |
| 2026-05-01 12:06 | 39.41452 | 22.00692 | 27705 ft | 535 kts | 110° |
| 2026-05-01 12:06 | 39.40324 | 22.05265 | 26835 ft | 533 kts | 110° |
| 2026-05-01 12:06 | 39.39197 | 22.09819 | 25938 ft | 531 kts | 110° |
| 2026-05-01 12:06 | 39.38086 | 22.14303 | 25494 ft | 513 kts | 109° |
| 2026-05-01 12:07 | 39.37000 | 22.18680 | 24711 ft | 510 kts | 109° |
| 2026-05-01 12:07 | 39.35940 | 22.22942 | 23837 ft | 499 kts | 109° |
| 2026-05-01 12:07 | 39.34884 | 22.27177 | 22687 ft | 490 kts | 109° |
| 2026-05-01 12:07 | 39.33837 | 22.31367 | 21636 ft | 490 kts | 109° |
| 2026-05-01 12:08 | 39.32802 | 22.35505 | 20925 ft | 475 kts | 109° |
| 2026-05-01 12:08 | 39.31798 | 22.39518 | 20015 ft | 465 kts | 109° |
| 2026-05-01 12:08 | 39.30805 | 22.43461 | 19587 ft | 455 kts | 109° |
| 2026-05-01 12:08 | 39.29832 | 22.47300 | 19059 ft | 449 kts | 109° |
| 2026-05-01 12:09 | 39.28861 | 22.51111 | 18416 ft | 445 kts | 109° |
| 2026-05-01 12:09 | 39.27894 | 22.54903 | 17671 ft | 442 kts | 109° |
| 2026-05-01 12:09 | 39.26938 | 22.58649 | 16970 ft | 438 kts | 109° |
| 2026-05-01 12:09 | 39.25990 | 22.62362 | 16293 ft | 434 kts | 109° |
| 2026-05-01 12:10 | 39.25062 | 22.65996 | 15641 ft | 430 kts | 109° |
| 2026-05-01 12:10 | 39.23205 | 22.73249 | 14333 ft | 421 kts | 109° |
| 2026-05-01 12:10 | 39.22287 | 22.76826 | 13624 ft | 418 kts | 108° |
| 2026-05-01 12:11 | 39.21322 | 22.84092 | 12430 ft | 406 kts | 92° |
| 2026-05-01 12:11 | 39.21203 | 22.87710 | 11780 ft | 403 kts | 92° |
| 2026-05-01 12:11 | 39.21086 | 22.91300 | 11418 ft | 394 kts | 92° |
| 2026-05-01 12:12 | 39.20967 | 22.94759 | 11284 ft | 378 kts | 92° |
| 2026-05-01 12:12 | 39.20844 | 22.98066 | 11226 ft | 362 kts | 93° |
| 2026-05-01 12:12 | 39.20719 | 23.01271 | 10947 ft | 354 kts | 93° |
| 2026-05-01 12:12 | 39.20594 | 23.04392 | 10792 ft | 343 kts | 93° |
| 2026-05-01 12:13 | 39.20469 | 23.07419 | 10625 ft | 333 kts | 93° |
| 2026-05-01 12:13 | 39.20346 | 23.10364 | 10477 ft | 324 kts | 93° |
| 2026-05-01 12:13 | 39.20226 | 23.13224 | 10342 ft | 315 kts | 93° |
| 2026-05-01 12:13 | 39.20110 | 23.15978 | 10194 ft | 309 kts | 92° |
| 2026-05-01 12:14 | 39.19994 | 23.18701 | 10044 ft | 301 kts | 93° |
| 2026-05-01 12:14 | 39.19878 | 23.21427 | 9599 ft | 304 kts | 92° |
| 2026-05-01 12:14 | 39.19761 | 23.24147 | 9271 ft | 303 kts | 92° |
| 2026-05-01 12:14 | 39.19645 | 23.26833 | 9207 ft | 296 kts | 92° |
| 2026-05-01 12:15 | 39.19532 | 23.29437 | 9205 ft | 286 kts | 92° |
| 2026-05-01 12:15 | 39.19422 | 23.31941 | 9031 ft | 274 kts | 92° |
| 2026-05-01 12:15 | 39.19317 | 23.34344 | 8834 ft | 263 kts | 92° |
| 2026-05-01 12:15 | 39.19215 | 23.36679 | 8598 ft | 258 kts | 91° |
| 2026-05-01 12:16 | 39.19110 | 23.38975 | 8204 ft | 258 kts | 91° |
| 2026-05-01 12:16 | 39.19002 | 23.41315 | 7682 ft | 262 kts | 91° |
| 2026-05-01 12:16 | 39.18894 | 23.43650 | 7280 ft | 259 kts | 91° |
| 2026-05-01 12:16 | 39.18788 | 23.45931 | 6874 ft | 256 kts | 90° |
| 2026-05-01 12:17 | 39.18686 | 23.48189 | 6590 ft | 248 kts | 90° |
| 2026-05-01 12:17 | 39.18584 | 23.50382 | 6289 ft | 242 kts | 90° |
| 2026-05-01 12:17 | 39.18484 | 23.52519 | 5988 ft | 236 kts | 89° |
| 2026-05-01 12:17 | 39.18388 | 23.54587 | 5756 ft | 225 kts | 90° |
| 2026-05-01 12:18 | 39.18015 | 23.56511 | 5482 ft | 224 kts | 115° |
| 2026-05-01 12:18 | 39.16989 | 23.58014 | 5224 ft | 225 kts | 140° |
| 2026-05-01 12:18 | 39.15557 | 23.58796 | 5006 ft | 224 kts | 167° |
| 2026-05-01 12:18 | 39.14007 | 23.58769 | 4774 ft | 223 kts | 191° |
| 2026-05-01 12:19 | 39.12582 | 23.58064 | 4546 ft | 221 kts | 204° |
| 2026-05-01 12:19 | 39.11210 | 23.57168 | 4339 ft | 219 kts | 206° |
| 2026-05-01 12:19 | 39.09854 | 23.56260 | 4126 ft | 219 kts | 205° |
| 2026-05-01 12:19 | 39.08503 | 23.55362 | 3922 ft | 216 kts | 205° |
| 2026-05-01 12:20 | 39.07200 | 23.54503 | 3780 ft | 205 kts | 205° |
| 2026-05-01 12:20 | 39.05968 | 23.53694 | 3678 ft | 194 kts | 204° |
| 2026-05-01 12:20 | 39.04787 | 23.52923 | 3613 ft | 191 kts | 204° |
| 2026-05-01 12:20 | 39.03606 | 23.52153 | 3527 ft | 190 kts | 204° |
| 2026-05-01 12:21 | 39.02515 | 23.51213 | 3429 ft | 190 kts | 230° |
| 2026-05-01 12:21 | 39.01996 | 23.49691 | 3388 ft | 189 kts | 269° |
| 2026-05-01 12:21 | 39.02231 | 23.48050 | 3190 ft | 187 kts | 305° |
| 2026-05-01 12:21 | 39.03094 | 23.46929 | 2983 ft | 171 kts | 340° |
| 2026-05-01 12:22 | 39.04188 | 23.46582 | 2795 ft | 156 kts | 5° |
| 2026-05-01 12:22 | 39.05205 | 23.46803 | 2636 ft | 144 kts | 16° |
| 2026-05-01 12:22 | 39.06180 | 23.47055 | 2434 ft | 141 kts | 14° |
| 2026-05-01 12:22 | 39.07124 | 23.47284 | 2303 ft | 139 kts | 16° |
| 2026-05-01 12:23 | 39.08089 | 23.47545 | 2144 ft | 140 kts | 16° |
| 2026-05-01 12:23 | 39.08993 | 23.47798 | 1945 ft | 130 kts | 17° |
| 2026-05-01 12:23 | 39.09848 | 23.48042 | 1773 ft | 127 kts | 17° |
| 2026-05-01 12:23 | 39.10706 | 23.48287 | 1609 ft | 126 kts | 17° |
| 2026-05-01 12:24 | 39.11565 | 23.48533 | 1442 ft | 127 kts | 18° |
| 2026-05-01 12:24 | 39.12421 | 23.48770 | 1300 ft | 125 kts | 15° |
| 2026-05-01 12:24 | 39.13310 | 23.48942 | 1105 ft | 133 kts | 12° |
| 2026-05-01 12:24 | 39.14218 | 23.49100 | 906 ft | 130 kts | 12° |
| 2026-05-01 12:25 | 39.15108 | 23.49277 | 669 ft | 130 kts | 14° |
| 2026-05-01 12:25 | 39.16818 | 23.49974 | 128 ft | 128 kts | 22° |
| 2026-05-01 12:25 | 39.17631 | 23.50328 | 41 ft | 120 kts | 21° |
| 2026-05-01 12:26 | 39.18275 | 23.50618 | 57 ft | 49 kts | 19° |
| 2026-05-01 12:26 | 39.18505 | 23.50693 | 53 ft | 9 kts | 11° |
| 2026-05-01 12:26 | 39.18521 | 23.50717 | 60 ft | 2 kts | 78° |
| 2026-05-01 12:27 | 39.18496 | 23.50744 | 56 ft | 1 kts | 179° |
| 2026-05-01 12:27 | 39.18381 | 23.50665 | 58 ft | 14 kts | 199° |
| 2026-05-01 12:28 | 39.18198 | 23.50583 | 53 ft | 15 kts | 199° |
| 2026-05-01 12:28 | 39.18087 | 23.50534 | 48 ft | 18 kts | 198° |
| 2026-05-01 12:28 | 39.17926 | 23.50392 | 41 ft | 0 kts | 248° |
| 2026-05-01 12:29 | 39.17925 | 23.50391 | 41 ft | 1 kts | 248° |
| 2026-05-01 12:29 | 39.17923 | 23.50365 | 41 ft | 6 kts | 274° |
| 2026-05-01 12:29 | 39.17944 | 23.50277 | 38 ft | 2 kts | 289° |
| 2026-05-01 12:30 | 39.17949 | 23.50259 | 38 ft | 0 kts | 289° |